Time;durP1;ratioP1;P1;durP2;ratioP2;P2;SDS_P1;SDS_P2;PMS_P1;PMS_P2;Temp;Humidity;BMP_temperature;BMP_pressure;BME280_temperature;BME280_humidity;BME280_pressure;Samples;Min_cycle;Max_cycle;Signal;HPM_P1;HPM_P2
2023/07/30 00:00:41;;;;;;;7.95;1.60;;;15.60;99.90;;;;;;5090030;28;20107;-52
2023/07/30 00:03:07;;;;;;;6.25;1.33;;;15.70;99.90;;;;;;5089970;28;20138;-54
2023/07/30 00:05:32;;;;;;;3.88;0.98;;;15.70;99.90;;;;;;5089798;28;20047;-50
2023/07/30 00:07:58;;;;;;;11.77;1.85;;;15.70;99.90;;;;;;5089813;28;20034;-50
2023/07/30 00:10:23;;;;;;;10.18;2.08;;;15.60;99.90;;;;;;5090132;28;20028;-52
2023/07/30 00:12:49;;;;;;;6.68;1.45;;;15.60;99.90;;;;;;5090068;28;20032;-54
2023/07/30 00:15:15;;;;;;;7.63;1.45;;;15.60;99.90;;;;;;5090010;28;20549;-58
2023/07/30 00:17:40;;;;;;;10.32;1.30;;;15.60;99.90;;;;;;5089874;28;20077;-50
2023/07/30 00:20:08;;;;;;;6.53;1.98;;;15.60;99.90;;;;;;5089947;28;20190;-50
2023/07/30 00:22:33;;;;;;;3.38;1.02;;;15.60;99.90;;;;;;5089802;28;20016;-51
2023/07/30 00:24:59;;;;;;;5.35;1.60;;;15.60;99.90;;;;;;5090000;28;20424;-48
2023/07/30 00:27:25;;;;;;;5.80;1.88;;;15.50;99.90;;;;;;5089974;28;20385;-54
2023/07/30 00:29:50;;;;;;;4.72;0.90;;;15.50;99.90;;;;;;5090091;28;20438;-50
2023/07/30 00:32:16;;;;;;;9.77;1.58;;;15.60;99.90;;;;;;5089735;28;20051;-50
2023/07/30 00:34:43;;;;;;;7.45;1.48;;;15.60;99.90;;;;;;5089723;28;20032;-50
2023/07/30 00:37:08;;;;;;;4.53;1.13;;;15.70;99.90;;;;;;5089551;28;20023;-55
2023/07/30 00:39:35;;;;;;;8.13;1.83;;;15.70;99.90;;;;;;5089746;28;20020;-53
2023/07/30 00:42:00;;;;;;;6.03;1.00;;;15.80;99.90;;;;;;5092732;28;20183;-55
2023/07/30 00:44:26;;;;;;;7.35;1.38;;;15.80;99.90;;;;;;5093762;28;20095;-52
2023/07/30 00:46:52;;;;;;;8.20;1.58;;;15.80;99.90;;;;;;5093901;28;20434;-52
2023/07/30 00:49:18;;;;;;;3.72;1.27;;;15.80;99.90;;;;;;5093665;28;20043;-47
2023/07/30 00:51:44;;;;;;;6.10;1.23;;;15.90;99.90;;;;;;5065170;28;20052;-54
2023/07/30 00:54:10;;;;;;;6.65;1.20;;;15.90;99.90;;;;;;5093640;28;20040;-48
2023/07/30 00:56:36;;;;;;;4.90;1.63;;;16.00;99.90;;;;;;5093441;28;20024;-56
2023/07/30 00:59:02;;;;;;;6.53;1.83;;;16.00;99.90;;;;;;5093518;28;20031;-53
2023/07/30 01:01:33;;;;;;;8.57;1.70;;;16.00;99.90;;;;;;5093309;28;20012;-55
2023/07/30 01:03:58;;;;;;;7.95;1.40;;;16.10;99.90;;;;;;5093320;28;20111;-51
2023/07/30 01:06:24;;;;;;;4.22;0.98;;;16.10;99.90;;;;;;5092137;28;20028;-53
2023/07/30 01:08:50;;;;;;;4.85;1.45;;;16.20;99.90;;;;;;5093069;28;20042;-46
2023/07/30 01:11:16;;;;;;;5.35;1.45;;;16.20;99.90;;;;;;5093617;28;20032;-49
2023/07/30 01:13:42;;;;;;;6.05;1.30;;;16.20;99.90;;;;;;5091784;28;20028;-54
2023/07/30 01:16:08;;;;;;;4.63;1.23;;;16.20;99.90;;;;;;5091797;28;20352;-53
2023/07/30 01:18:34;;;;;;;8.82;1.35;;;16.30;99.90;;;;;;5093163;28;20028;-53
2023/07/30 01:21:00;;;;;;;7.68;1.38;;;16.30;99.90;;;;;;5093238;28;20433;-46
2023/07/30 01:23:26;;;;;;;11.13;1.95;;;16.30;99.90;;;;;;5093020;28;20028;-50
2023/07/30 01:26:08;;;;;;;6.82;1.15;;;16.30;99.90;;;;;;5091545;28;20024;-46
2023/07/30 01:28:38;;;;;;;4.20;0.95;;;16.40;99.90;;;;;;5092937;28;20306;-47
2023/07/30 01:31:06;;;;;;;4.43;1.10;;;16.40;99.90;;;;;;5091134;28;20141;-47
2023/07/30 01:33:32;;;;;;;6.97;1.08;;;16.40;99.90;;;;;;5092992;28;20076;-47
2023/07/30 01:35:58;;;;;;;7.05;1.23;;;16.40;99.90;;;;;;5092660;28;20031;-47
2023/07/30 01:38:26;;;;;;;4.03;1.00;;;16.40;99.90;;;;;;5092612;28;20039;-47
2023/07/30 01:40:52;;;;;;;3.13;0.95;;;16.40;99.90;;;;;;5092440;28;20020;-47
2023/07/30 01:43:17;;;;;;;7.65;1.60;;;16.50;99.90;;;;;;5092587;28;20020;-47
2023/07/30 01:45:43;;;;;;;5.18;1.13;;;16.40;99.90;;;;;;5092353;28;20548;-50
2023/07/30 01:48:09;;;;;;;4.30;1.17;;;16.50;99.90;;;;;;5092287;28;20016;-52
2023/07/30 01:50:34;;;;;;;5.97;1.20;;;16.50;99.90;;;;;;5092631;28;20024;-50
2023/07/30 01:53:00;;;;;;;8.27;1.73;;;16.50;99.90;;;;;;5091772;28;20028;-49
2023/07/30 01:55:25;;;;;;;4.25;1.10;;;16.50;99.90;;;;;;5092240;28;20028;-47
2023/07/30 01:57:51;;;;;;;4.07;1.17;;;16.50;99.90;;;;;;5091892;28;20035;-48
2023/07/30 02:00:17;;;;;;;7.30;1.48;;;16.50;99.90;;;;;;5092113;28;20443;-47
2023/07/30 02:02:42;;;;;;;5.22;1.48;;;16.50;99.90;;;;;;5089099;28;20025;-52
2023/07/30 02:05:08;;;;;;;8.82;1.40;;;16.50;99.90;;;;;;5086824;28;20043;-51
2023/07/30 02:07:33;;;;;;;9.75;2.00;;;16.50;99.90;;;;;;5091668;28;20044;-52
2023/07/30 02:10:00;;;;;;;6.57;1.33;;;16.50;99.90;;;;;;5092277;28;20035;-51
2023/07/30 02:12:25;;;;;;;5.38;1.60;;;16.50;99.90;;;;;;5092043;28;20485;-47
2023/07/30 02:14:51;;;;;;;11.77;1.63;;;16.50;99.90;;;;;;5088897;28;20032;-51
2023/07/30 02:17:17;;;;;;;8.73;1.80;;;16.50;99.90;;;;;;5071622;28;20008;-52
2023/07/30 02:19:42;;;;;;;4.68;1.10;;;16.50;99.90;;;;;;5071606;28;20032;-50
2023/07/30 02:22:08;;;;;;;10.63;1.52;;;16.50;99.90;;;;;;5088830;28;20020;-57
2023/07/30 02:24:33;;;;;;;7.43;1.15;;;16.50;99.90;;;;;;5091473;28;20477;-49
2023/07/30 02:26:59;;;;;;;7.13;1.63;;;16.50;99.90;;;;;;5091398;28;20039;-51
2023/07/30 02:29:25;;;;;;;7.13;1.52;;;16.50;99.90;;;;;;5091654;28;20054;-48
2023/07/30 02:31:50;;;;;;;7.43;1.67;;;16.50;99.90;;;;;;5091540;28;20051;-47
2023/07/30 02:34:16;;;;;;;8.32;1.52;;;16.50;99.90;;;;;;5091425;28;20024;-49
2023/07/30 02:36:42;;;;;;;7.50;1.42;;;16.50;99.90;;;;;;5090352;28;20104;-47
2023/07/30 02:39:07;;;;;;;5.18;1.90;;;16.50;99.90;;;;;;5091406;28;20063;-47
2023/07/30 02:41:33;;;;;;;7.97;1.40;;;16.50;99.90;;;;;;5091601;28;20137;-50
2023/07/30 02:43:59;;;;;;;5.00;1.00;;;16.50;99.90;;;;;;5091270;28;20024;-51
2023/07/30 02:46:24;;;;;;;9.50;1.52;;;16.50;99.90;;;;;;5091427;28;20028;-50
2023/07/30 02:48:50;;;;;;;7.28;1.00;;;16.50;99.90;;;;;;5091429;28;20020;-46
2023/07/30 02:51:15;;;;;;;13.35;1.50;;;16.40;99.90;;;;;;5091413;28;20024;-47
2023/07/30 02:53:43;;;;;;;6.38;1.50;;;16.50;99.90;;;;;;5091259;28;20020;-46
2023/07/30 02:56:09;;;;;;;11.60;2.20;;;16.50;99.90;;;;;;5091106;28;20107;-49
2023/07/30 02:58:35;;;;;;;8.35;1.20;;;16.50;99.90;;;;;;5091150;28;20111;-55
2023/07/30 03:01:06;;;;;;;2.90;0.95;;;16.50;99.90;;;;;;5090853;28;20035;-46
2023/07/30 03:03:32;;;;;;;5.65;1.08;;;16.50;99.90;;;;;;5090893;28;20024;-50
2023/07/30 03:05:58;;;;;;;3.78;1.33;;;16.40;99.90;;;;;;5090989;28;20039;-49
2023/07/30 03:08:23;;;;;;;3.30;1.10;;;16.40;99.90;;;;;;5091037;28;20065;-50
2023/07/30 03:10:49;;;;;;;7.93;1.20;;;16.40;99.90;;;;;;5090997;28;20483;-54
2023/07/30 03:13:14;;;;;;;7.15;1.50;;;16.40;99.90;;;;;;5090575;28;20024;-48
2023/07/30 03:15:40;;;;;;;3.65;0.77;;;16.40;99.90;;;;;;5090889;28;20035;-50
2023/07/30 03:18:05;;;;;;;3.95;1.42;;;16.40;99.90;;;;;;5090586;28;20031;-47
2023/07/30 03:20:31;;;;;;;6.35;1.70;;;16.30;99.90;;;;;;5090857;28;20051;-51
2023/07/30 03:22:57;;;;;;;2.75;0.88;;;16.30;99.90;;;;;;5090739;28;20027;-54
2023/07/30 03:25:22;;;;;;;5.43;1.10;;;16.30;99.90;;;;;;5090506;28;20032;-47
2023/07/30 03:27:48;;;;;;;2.40;0.77;;;16.30;99.90;;;;;;5090307;28;20782;-49
2023/07/30 03:30:13;;;;;;;5.05;0.90;;;16.20;99.90;;;;;;5090528;28;20031;-54
2023/07/30 03:32:40;;;;;;;6.80;1.00;;;16.20;99.90;;;;;;5090423;28;20044;-49
2023/07/30 03:35:06;;;;;;;5.75;1.10;;;16.20;99.90;;;;;;5090516;28;20020;-47
2023/07/30 03:37:31;;;;;;;11.25;1.00;;;16.10;99.90;;;;;;5090498;28;20566;-53
2023/07/30 03:39:57;;;;;;;2.70;0.82;;;16.10;99.90;;;;;;5090507;28;20042;-55
2023/07/30 03:42:23;;;;;;;2.03;0.85;;;16.10;99.90;;;;;;5090290;28;20437;-52
2023/07/30 03:44:48;;;;;;;3.15;0.88;;;16.10;99.90;;;;;;5090667;28;20086;-56
2023/07/30 03:47:14;;;;;;;1.83;1.02;;;16.10;99.90;;;;;;5072866;28;20453;-50
2023/07/30 03:49:39;;;;;;;4.20;0.93;;;16.10;99.90;;;;;;5074820;28;20115;-48
2023/07/30 03:52:05;;;;;;;2.63;0.77;;;16.10;99.90;;;;;;5076588;28;20025;-50
2023/07/30 03:54:31;;;;;;;3.78;0.80;;;16.10;99.90;;;;;;5069082;28;20028;-51
2023/07/30 03:56:57;;;;;;;4.50;1.05;;;16.10;99.90;;;;;;5079813;28;20036;-47
2023/07/30 03:59:22;;;;;;;4.22;0.73;;;16.10;99.90;;;;;;5069986;28;20032;-49
2023/07/30 04:01:48;;;;;;;4.03;0.75;;;16.10;99.90;;;;;;5069972;28;20448;-51
2023/07/30 04:04:14;;;;;;;3.13;0.82;;;16.10;99.90;;;;;;5069424;28;20029;-48
2023/07/30 04:06:39;;;;;;;2.80;0.70;;;16.10;99.90;;;;;;5069863;28;20039;-51
2023/07/30 04:09:05;;;;;;;4.18;0.63;;;16.00;99.90;;;;;;5068397;28;20020;-54
2023/07/30 04:11:30;;;;;;;2.20;0.50;;;16.00;99.90;;;;;;5072338;28;20021;-50
2023/07/30 04:13:56;;;;;;;5.05;0.82;;;15.90;99.90;;;;;;5090182;28;20027;-52
2023/07/30 04:16:22;;;;;;;3.80;1.10;;;15.90;99.90;;;;;;5091581;28;20496;-48
2023/07/30 04:18:47;;;;;;;4.40;0.93;;;15.80;99.90;;;;;;5094434;28;20023;-54
2023/07/30 04:21:13;;;;;;;4.00;0.80;;;15.70;99.90;;;;;;5094329;28;20047;-50
2023/07/30 04:23:39;;;;;;;1.67;0.60;;;15.70;99.90;;;;;;5093968;28;20099;-52
2023/07/30 04:26:05;;;;;;;3.58;0.80;;;15.60;99.90;;;;;;5094009;28;20096;-55
2023/07/30 04:28:30;;;;;;;5.70;0.85;;;15.60;99.90;;;;;;5094031;28;20035;-50
2023/07/30 04:30:56;;;;;;;3.33;0.80;;;15.50;99.90;;;;;;5093897;28;20044;-49
2023/07/30 04:33:21;;;;;;;1.45;0.60;;;15.50;99.90;;;;;;5093836;28;20028;-53
2023/07/30 04:35:47;;;;;;;2.40;0.70;;;15.40;99.90;;;;;;5093887;28;20055;-54
2023/07/30 04:38:13;;;;;;;3.33;0.85;;;15.40;99.90;;;;;;5093937;28;20027;-54
2023/07/30 04:40:39;;;;;;;2.67;0.60;;;15.30;99.90;;;;;;5093567;28;20039;-48
2023/07/30 04:43:05;;;;;;;1.77;0.65;;;15.30;99.90;;;;;;5093836;28;20020;-46
2023/07/30 04:45:30;;;;;;;4.07;0.70;;;15.30;99.90;;;;;;5093453;28;20043;-47
2023/07/30 04:47:57;;;;;;;3.92;0.68;;;15.30;99.90;;;;;;5093625;28;20030;-50
2023/07/30 04:50:22;;;;;;;4.15;1.00;;;15.20;99.90;;;;;;5093557;28;20055;-52
2023/07/30 04:52:48;;;;;;;3.50;0.60;;;15.20;99.90;;;;;;5093484;28;20468;-51
2023/07/30 04:55:13;;;;;;;7.03;0.98;;;15.20;99.90;;;;;;5093376;28;20040;-48
2023/07/30 04:57:39;;;;;;;8.27;0.82;;;15.20;99.90;;;;;;5093396;28;20023;-53
2023/07/30 05:00:05;;;;;;;4.28;1.00;;;15.20;99.90;;;;;;5093493;28;20023;-46
2023/07/30 05:02:31;;;;;;;2.25;0.63;;;15.20;99.90;;;;;;5093348;28;20060;-53
2023/07/30 05:04:57;;;;;;;3.15;0.70;;;15.20;99.90;;;;;;5092664;28;20082;-46
2023/07/30 05:07:22;;;;;;;2.65;0.75;;;15.20;99.90;;;;;;5092988;28;20116;-46
2023/07/30 05:09:48;;;;;;;1.85;0.70;;;15.20;99.90;;;;;;5093221;28;20027;-47
2023/07/30 05:12:13;;;;;;;2.08;0.70;;;15.20;99.90;;;;;;5089132;28;20028;-50
2023/07/30 05:14:39;;;;;;;4.47;0.73;;;15.20;99.90;;;;;;5093183;28;20110;-47
2023/07/30 05:17:05;;;;;;;3.72;0.98;;;15.20;99.90;;;;;;5093173;28;20024;-48
2023/07/30 05:19:31;;;;;;;0.85;0.60;;;15.20;99.90;;;;;;5093194;28;20484;-48
2023/07/30 05:21:59;;;;;;;8.95;0.95;;;15.20;99.90;;;;;;5093175;28;20028;-51
2023/07/30 05:24:25;;;;;;;4.35;0.93;;;15.30;99.90;;;;;;5093017;28;20036;-49
2023/07/30 05:26:50;;;;;;;3.80;1.05;;;15.30;99.90;;;;;;5092576;28;20084;-52
2023/07/30 05:29:16;;;;;;;3.70;1.00;;;15.30;99.90;;;;;;5092945;28;20020;-52
2023/07/30 05:31:41;;;;;;;4.07;0.95;;;15.40;99.90;;;;;;5092661;28;20044;-48
2023/07/30 05:34:07;;;;;;;4.30;0.73;;;15.40;99.90;;;;;;5093004;28;20020;-46
2023/07/30 05:36:33;;;;;;;10.40;0.95;;;15.50;99.90;;;;;;5092901;28;20119;-47
2023/07/30 05:38:58;;;;;;;7.28;1.23;;;15.60;99.90;;;;;;5092728;28;20031;-46
2023/07/30 05:41:24;;;;;;;8.07;1.17;;;15.70;99.90;;;;;;5092856;28;20024;-52
2023/07/30 05:43:49;;;;;;;3.33;0.82;;;15.70;99.90;;;;;;5092494;28;20028;-51
2023/07/30 05:46:15;;;;;;;5.60;0.93;;;15.80;99.90;;;;;;5092781;28;20473;-50
2023/07/30 05:48:41;;;;;;;7.05;1.50;;;15.80;99.90;;;;;;5092517;28;20047;-53
2023/07/30 05:51:06;;;;;;;3.25;1.23;;;15.90;99.90;;;;;;5092699;28;20091;-52
2023/07/30 05:53:32;;;;;;;5.75;1.00;;;16.00;99.90;;;;;;5092562;28;20067;-53
2023/07/30 05:55:57;;;;;;;4.95;0.70;;;16.00;99.90;;;;;;5092335;28;20020;-48
2023/07/30 05:58:23;;;;;;;3.88;0.68;;;16.00;99.90;;;;;;5092685;28;20021;-45
2023/07/30 06:00:49;;;;;;;5.32;0.82;;;16.10;99.90;;;;;;5092086;28;20028;-55
2023/07/30 06:03:14;;;;;;;12.27;1.42;;;16.40;99.90;;;;;;5092450;28;20377;-54
2023/07/30 06:05:43;;;;;;;7.63;1.02;;;16.70;99.90;;;;;;5092201;28;20434;-49
2023/07/30 06:08:08;;;;;;;3.77;0.80;;;17.30;99.90;;;;;;5092324;28;20012;-52
2023/07/30 06:10:36;;;;;;;7.95;1.15;;;17.60;99.90;;;;;;5092199;28;20610;-50
2023/07/30 06:13:02;;;;;;;6.53;0.73;;;18.10;99.90;;;;;;5091712;28;20031;-46
2023/07/30 06:15:28;;;;;;;2.05;0.65;;;18.70;99.90;;;;;;5092215;28;20020;-54
2023/07/30 06:17:53;;;;;;;2.40;0.70;;;19.30;99.90;;;;;;5092227;28;20039;-51
2023/07/30 06:20:19;;;;;;;4.28;1.02;;;19.90;99.90;;;;;;5091966;28;20495;-56
2023/07/30 06:22:45;;;;;;;2.78;0.85;;;20.20;99.90;;;;;;5091820;28;20080;-51
2023/07/30 06:25:10;;;;;;;3.95;0.73;;;20.50;99.90;;;;;;5091744;28;20373;-48
2023/07/30 06:27:36;;;;;;;4.75;0.68;;;20.80;99.90;;;;;;5091849;28;20027;-53
2023/07/30 06:30:02;;;;;;;4.25;0.82;;;21.10;99.90;;;;;;5091758;28;20028;-50
2023/07/30 06:32:27;;;;;;;5.57;1.13;;;21.70;99.90;;;;;;5090340;28;20112;-50
2023/07/30 06:34:53;;;;;;;2.28;0.50;;;22.30;99.90;;;;;;5091872;28;20477;-52
2023/07/30 06:37:18;;;;;;;4.18;0.63;;;22.50;99.90;;;;;;5091840;28;20563;-51
2023/07/30 06:39:44;;;;;;;4.75;1.00;;;22.60;99.90;;;;;;5089709;28;20107;-55
2023/07/30 06:42:10;;;;;;;2.50;0.52;;;21.90;99.90;;;;;;5091544;28;20361;-49
2023/07/30 06:44:35;;;;;;;2.88;0.77;;;21.30;99.90;;;;;;5084247;28;20036;-51
2023/07/30 06:47:01;;;;;;;8.65;1.00;;;21.00;99.90;;;;;;5071142;28;20028;-48
2023/07/30 06:49:27;;;;;;;1.75;0.60;;;21.30;99.90;;;;;;5071132;28;20044;-52
2023/07/30 06:51:52;;;;;;;2.10;0.52;;;21.70;99.90;;;;;;5070908;28;20052;-51
2023/07/30 06:54:18;;;;;;;3.75;0.82;;;22.10;99.90;;;;;;5070518;28;20318;-52
2023/07/30 06:56:43;;;;;;;2.65;0.75;;;22.50;99.90;;;;;;5070838;28;20056;-49
2023/07/30 06:59:09;;;;;;;5.30;1.00;;;22.50;99.90;;;;;;5071039;28;20423;-49
2023/07/30 07:01:35;;;;;;;6.28;0.80;;;22.40;99.90;;;;;;5070762;28;20024;-51
2023/07/30 07:04:00;;;;;;;1.58;0.60;;;22.70;99.90;;;;;;5060962;28;20037;-50
2023/07/30 07:06:26;;;;;;;2.05;0.65;;;23.00;99.90;;;;;;5056465;28;20029;-50
2023/07/30 07:08:51;;;;;;;5.00;0.80;;;23.30;99.90;;;;;;5065489;28;20024;-52
2023/07/30 07:11:17;;;;;;;2.35;0.65;;;23.60;99.90;;;;;;5071118;28;20507;-51
2023/07/30 07:13:42;;;;;;;4.05;1.15;;;23.80;99.90;;;;;;5090906;28;20055;-52
2023/07/30 07:16:08;;;;;;;1.55;0.55;;;23.90;99.90;;;;;;5090959;28;20369;-48
2023/07/30 07:18:34;;;;;;;4.32;0.80;;;24.20;99.90;;;;;;5090533;28;20150;-50
2023/07/30 07:21:00;;;;;;;3.80;0.73;;;24.60;99.90;;;;;;5090706;28;20035;-49
2023/07/30 07:23:25;;;;;;;4.20;0.80;;;25.10;99.90;;;;;;5090592;28;20028;-53
2023/07/30 07:25:52;;;;;;;1.77;0.55;;;24.50;99.90;;;;;;5090595;28;20039;-49
2023/07/30 07:28:18;;;;;;;4.50;0.70;;;23.90;99.90;;;;;;5090723;28;20022;-54
2023/07/30 07:30:44;;;;;;;2.47;0.60;;;23.00;99.90;;;;;;5090471;28;20024;-51
2023/07/30 07:33:12;;;;;;;3.72;0.65;;;22.80;99.90;;;;;;5090419;28;20048;-51
2023/07/30 07:35:39;;;;;;;1.52;0.63;;;23.00;99.90;;;;;;5090215;28;20457;-54
2023/07/30 07:38:06;;;;;;;3.08;0.80;;;23.30;99.90;;;;;;5090909;28;20040;-48
2023/07/30 07:40:42;;;;;;;3.58;0.80;;;23.40;99.90;;;;;;5090728;28;20020;-47
2023/07/30 07:43:08;;;;;;;1.85;0.63;;;23.10;99.90;;;;;;5090643;28;20093;-53
2023/07/30 07:45:34;;;;;;;2.47;0.80;;;23.10;99.90;;;;;;5086033;28;20062;-51
2023/07/30 07:48:00;;;;;;;5.60;0.93;;;23.20;99.90;;;;;;5077817;28;20060;-45
2023/07/30 07:50:25;;;;;;;2.65;0.82;;;23.20;99.90;;;;;;5069585;28;20020;-51
2023/07/30 07:52:51;;;;;;;3.38;0.52;;;23.30;99.90;;;;;;5069881;28;20032;-53
2023/07/30 07:55:17;;;;;;;1.27;0.75;;;23.10;99.90;;;;;;5069990;28;20113;-51
2023/07/30 07:57:42;;;;;;;3.05;0.68;;;23.40;99.90;;;;;;5069645;28;20110;-46
2023/07/30 08:00:08;;;;;;;2.15;0.70;;;23.30;99.90;;;;;;5070140;28;20025;-49
2023/07/30 08:02:34;;;;;;;2.53;0.75;;;23.50;99.90;;;;;;5069365;28;20033;-47
2023/07/30 08:05:00;;;;;;;3.50;1.27;;;23.60;99.90;;;;;;5069861;28;20733;-53
2023/07/30 08:07:25;;;;;;;2.60;0.80;;;23.50;99.90;;;;;;5069631;28;20028;-48
2023/07/30 08:09:51;;;;;;;2.22;0.80;;;23.90;99.90;;;;;;5070214;28;20028;-53
2023/07/30 08:12:18;;;;;;;5.05;0.80;;;24.10;99.90;;;;;;5078592;28;20150;-54
2023/07/30 08:14:44;;;;;;;4.40;0.70;;;24.50;99.90;;;;;;5089946;28;20024;-54
2023/07/30 08:17:09;;;;;;;2.80;0.80;;;24.40;99.90;;;;;;5089927;28;20373;-49
2023/07/30 08:19:35;;;;;;;0.85;0.70;;;24.30;99.90;;;;;;5079527;28;20040;-51
2023/07/30 08:22:01;;;;;;;1.42;0.60;;;24.40;99.90;;;;;;5069785;28;20059;-48
2023/07/30 08:24:26;;;;;;;3.17;0.68;;;24.80;99.90;;;;;;5069618;28;20016;-49
2023/07/30 08:26:52;;;;;;;5.68;0.93;;;25.00;99.90;;;;;;5069733;28;20037;-45
2023/07/30 08:29:17;;;;;;;2.10;0.93;;;25.00;99.90;;;;;;5069656;28;20564;-52
2023/07/30 08:31:43;;;;;;;1.35;0.50;;;25.30;99.90;;;;;;5069656;28;20435;-49
2023/07/30 08:34:09;;;;;;;3.38;1.08;;;25.60;99.90;;;;;;5069766;28;20017;-54
2023/07/30 08:36:34;;;;;;;1.50;0.65;;;25.30;99.90;;;;;;5068207;28;20024;-54
2023/07/30 08:39:02;;;;;;;7.90;0.77;;;25.10;99.90;;;;;;5069577;28;20021;-51
2023/07/30 08:41:27;;;;;;;0.93;0.50;;;24.80;99.90;;;;;;5069532;28;20082;-50
2023/07/30 08:43:53;;;;;;;3.67;0.68;;;24.40;99.90;;;;;;5069483;28;20037;-47
2023/07/30 08:46:19;;;;;;;7.07;1.23;;;24.50;99.90;;;;;;5069340;28;20052;-50
2023/07/30 08:48:44;;;;;;;2.85;0.82;;;24.40;99.90;;;;;;5069422;28;20021;-46
2023/07/30 08:51:12;;;;;;;4.05;1.08;;;24.80;99.90;;;;;;5069635;28;20031;-53
2023/07/30 08:53:38;;;;;;;2.45;0.82;;;24.90;99.90;;;;;;5069342;28;20036;-51
2023/07/30 08:56:05;;;;;;;4.22;0.82;;;24.40;99.90;;;;;;5069445;28;20032;-46
2023/07/30 08:58:34;;;;;;;3.00;0.90;;;23.40;99.90;;;;;;5069516;28;20036;-46
2023/07/30 09:01:03;;;;;;;5.13;1.25;;;23.20;99.90;;;;;;5069057;28;20017;-53
2023/07/30 09:03:32;;;;;;;4.18;0.85;;;23.40;99.90;;;;;;5072708;28;20136;-49
2023/07/30 09:05:57;;;;;;;5.90;1.05;;;23.30;99.90;;;;;;5072923;28;20032;-53
2023/07/30 09:08:23;;;;;;;2.00;0.75;;;23.30;99.90;;;;;;5073250;28;20020;-46
2023/07/30 09:10:50;;;;;;;3.40;1.08;;;22.80;99.90;;;;;;5067542;28;20115;-55
2023/07/30 09:13:23;;;;;;;5.32;0.90;;;22.30;99.90;;;;;;5089920;28;20020;-46
2023/07/30 09:15:50;;;;;;;6.63;1.30;;;21.60;99.90;;;;;;5093817;28;20032;-51
2023/07/30 09:18:18;;;;;;;5.68;1.23;;;21.30;99.90;;;;;;5093336;28;20111;-52
2023/07/30 09:20:44;;;;;;;3.83;1.20;;;21.30;99.90;;;;;;5093152;28;20038;-48
2023/07/30 09:23:11;;;;;;;3.17;0.93;;;21.90;99.90;;;;;;5093007;28;20356;-50
2023/07/30 09:25:37;;;;;;;4.50;1.02;;;22.10;99.90;;;;;;5090977;28;20452;-47
2023/07/30 09:28:04;;;;;;;9.07;1.58;;;22.10;99.90;;;;;;5077241;28;20477;-53
2023/07/30 09:30:30;;;;;;;5.85;1.70;;;22.10;99.90;;;;;;5072500;28;20029;-55
2023/07/30 09:32:57;;;;;;;3.75;1.55;;;22.20;99.90;;;;;;5062530;28;20037;-50
2023/07/30 09:35:27;;;;;;;4.63;1.30;;;22.60;99.90;;;;;;5072486;28;20055;-56
2023/07/30 09:38:01;;;;;;;5.85;1.50;;;22.80;99.90;;;;;;5072199;28;20008;-51
2023/07/30 09:40:35;;;;;;;4.40;1.60;;;23.10;99.90;;;;;;5072230;28;20036;-51
2023/07/30 09:43:03;;;;;;;8.57;1.60;;;22.90;99.90;;;;;;5072290;28;20024;-51
2023/07/30 09:45:32;;;;;;;7.38;1.75;;;22.70;99.90;;;;;;5072188;28;20045;-53
2023/07/30 09:47:58;;;;;;;;;;;22.40;99.90;;;;;;5072735;28;20047;-54
2023/07/30 09:50:24;;;;;;;8.10;1.85;;;22.20;99.90;;;;;;5072112;28;19904;-49
2023/07/30 09:52:50;;;;;;;9.68;1.92;;;22.10;99.90;;;;;;5072166;28;20055;-50
2023/07/30 09:55:16;;;;;;;8.18;1.60;;;21.80;99.90;;;;;;5071994;28;20028;-50
2023/07/30 09:57:43;;;;;;;7.97;1.75;;;21.60;99.90;;;;;;5071530;28;20029;-54
2023/07/30 10:00:09;;;;;;;5.53;1.38;;;21.30;99.90;;;;;;5071947;28;20032;-52
2023/07/30 10:02:39;;;;;;;6.53;1.90;;;21.30;99.90;;;;;;5057900;28;20021;-54
2023/07/30 10:05:12;;;;;;;4.60;1.63;;;21.10;99.90;;;;;;5070355;28;20056;-56
2023/07/30 10:07:42;;;;;;;4.07;1.30;;;21.20;99.90;;;;;;5068938;28;20025;-56
2023/07/30 10:10:09;;;;;;;5.05;1.60;;;20.80;99.90;;;;;;5072042;28;20021;-49
2023/07/30 10:12:37;;;;;;;3.92;1.20;;;20.30;99.90;;;;;;5082843;28;20020;-53
2023/07/30 10:15:03;;;;;;;7.65;1.98;;;20.30;99.90;;;;;;5091059;28;20095;-51
2023/07/30 10:17:28;;;;;;;7.38;1.20;;;20.40;99.90;;;;;;5092069;28;20111;-52
2023/07/30 10:19:54;;;;;;;5.88;1.73;;;20.40;99.90;;;;;;5079395;28;20128;-50
2023/07/30 10:22:23;;;;;;;6.75;1.52;;;20.30;99.90;;;;;;5091813;28;20016;-51
2023/07/30 10:24:59;;;;;;;7.30;2.08;;;20.20;99.90;;;;;;5091699;28;20024;-52
2023/07/30 10:27:26;;;;;;;8.20;2.30;;;20.20;99.90;;;;;;5089335;28;20031;-54
2023/07/30 10:30:16;;;;;;;5.03;1.50;;;20.10;99.90;;;;;;5076451;28;20017;-50
2023/07/30 10:32:54;;;;;;;6.25;1.92;;;20.10;99.90;;;;;;5070660;28;20097;-55
2023/07/30 10:35:37;;;;;;;4.43;1.25;;;20.10;99.90;;;;;;5070831;28;20492;-52
2023/07/30 10:38:16;;;;;;;5.00;1.48;;;20.00;99.90;;;;;;5061865;28;20040;-50
2023/07/30 10:40:58;;;;;;;5.78;1.30;;;19.70;99.90;;;;;;5069679;28;20024;-53
2023/07/30 10:43:50;;;;;;;6.30;1.15;;;19.60;99.90;;;;;;5070700;28;20489;-50
2023/07/30 10:46:19;;;;;;;4.45;1.17;;;19.40;99.90;;;;;;5061804;28;20036;-50
2023/07/30 10:48:47;;;;;;;7.40;1.35;;;19.30;99.90;;;;;;5071033;28;20623;-51
2023/07/30 10:51:17;;;;;;;3.55;1.80;;;19.20;99.90;;;;;;5070160;28;20017;-48
2023/07/30 10:53:48;;;;;;;5.22;1.55;;;19.20;99.90;;;;;;5068810;28;20136;-56
2023/07/30 10:56:16;;;;;;;4.60;1.80;;;19.20;99.90;;;;;;5062802;28;20441;-54
2023/07/30 10:58:43;;;;;;;6.43;2.03;;;19.30;99.90;;;;;;5061706;28;20034;-52
2023/07/30 11:01:09;;;;;;;5.57;1.40;;;19.30;99.90;;;;;;5068981;28;20052;-51
2023/07/30 11:03:35;;;;;;;5.53;1.05;;;19.20;99.90;;;;;;5070376;28;20028;-49
2023/07/30 11:06:02;;;;;;;5.22;1.55;;;19.00;99.90;;;;;;5067196;28;20485;-52
2023/07/30 11:08:43;;;;;;;10.02;2.50;;;18.80;99.90;;;;;;5070550;28;20052;-55
2023/07/30 11:11:10;;;;;;;5.85;2.42;;;18.70;99.90;;;;;;5070536;28;20028;-53
2023/07/30 11:13:46;;;;;;;4.82;2.15;;;18.70;99.90;;;;;;5086175;28;20377;-54
2023/07/30 11:16:13;;;;;;;6.97;2.38;;;18.80;99.90;;;;;;5071908;28;20488;-51
2023/07/30 11:18:40;;;;;;;10.70;2.92;;;18.60;99.90;;;;;;5070307;28;20496;-50
2023/07/30 11:21:11;;;;;;;5.57;2.13;;;18.50;99.90;;;;;;5070305;28;20492;-47
2023/07/30 11:23:40;;;;;;;6.47;1.27;;;18.50;99.90;;;;;;5070053;28;20027;-50
2023/07/30 11:26:07;;;;;;;8.65;3.60;;;18.70;99.90;;;;;;5069775;28;20028;-58
2023/07/30 11:28:39;;;;;;;8.05;2.60;;;18.80;99.90;;;;;;5069700;28;20036;-57
2023/07/30 11:31:09;;;;;;;5.55;2.03;;;18.80;99.90;;;;;;5069582;28;20025;-50
2023/07/30 11:33:46;;;;;;;3.22;1.40;;;18.60;99.90;;;;;;5070274;28;20033;-54
2023/07/30 11:36:18;;;;;;;1.77;0.90;;;18.50;99.90;;;;;;5069843;28;20041;-54
2023/07/30 11:38:45;;;;;;;2.63;0.90;;;18.30;99.90;;;;;;5069781;28;20134;-53
2023/07/30 11:41:12;;;;;;;3.20;1.20;;;18.20;99.90;;;;;;5070127;28;20089;-49
2023/07/30 11:43:40;;;;;;;2.15;0.80;;;18.10;99.90;;;;;;5069607;28;20159;-50
2023/07/30 11:46:14;;;;;;;2.15;1.00;;;17.90;99.90;;;;;;5069719;28;20115;-52
2023/07/30 11:48:42;;;;;;;2.88;0.88;;;17.90;99.90;;;;;;5069742;28;20509;-47
2023/07/30 11:51:22;;;;;;;3.65;0.85;;;17.70;99.90;;;;;;5069661;28;20025;-53
2023/07/30 11:54:01;;;;;;;2.13;0.77;;;17.80;99.90;;;;;;5070346;28;20031;-52
2023/07/30 11:56:33;;;;;;;2.38;1.00;;;17.90;99.90;;;;;;5069431;28;20032;-46
2023/07/30 11:59:05;;;;;;;3.33;0.80;;;18.00;99.90;;;;;;5069332;28;20520;-52
2023/07/30 12:01:36;;;;;;;2.97;0.68;;;18.00;99.90;;;;;;5069853;28;20096;-49
2023/07/30 12:04:04;;;;;;;0.55;0.50;;;18.00;99.90;;;;;;5069036;28;20362;-48
2023/07/30 12:06:41;;;;;;;2.13;0.70;;;18.00;99.90;;;;;;5066382;28;20033;-50
2023/07/30 12:09:10;;;;;;;2.67;0.70;;;17.90;99.90;;;;;;5068420;28;20032;-54
2023/07/30 12:11:44;;;;;;;1.42;0.60;;;17.90;99.90;;;;;;5057377;28;20173;-49
2023/07/30 12:14:10;;;;;;;1.58;0.60;;;18.00;99.90;;;;;;5072074;28;20036;-51
2023/07/30 12:16:36;;;;;;;1.85;0.60;;;18.00;99.90;;;;;;5067678;28;20143;-50
2023/07/30 12:19:01;;;;;;;2.55;0.70;;;17.90;99.90;;;;;;5068011;28;20040;-50
2023/07/30 12:21:27;;;;;;;1.75;0.80;;;17.90;99.90;;;;;;5068003;28;20043;-45
2023/07/30 12:23:52;;;;;;;2.25;0.85;;;17.80;99.90;;;;;;5067781;28;20027;-46
2023/07/30 12:26:18;;;;;;;2.15;0.70;;;17.90;99.90;;;;;;5069344;28;20129;-50
2023/07/30 12:28:43;;;;;;;2.78;0.93;;;17.90;99.90;;;;;;5067049;28;20025;-48
2023/07/30 12:31:09;;;;;;;2.65;0.82;;;17.80;99.90;;;;;;5069416;28;20781;-55
2023/07/30 12:33:35;;;;;;;2.08;0.90;;;18.00;99.90;;;;;;5071146;28;20032;-51
2023/07/30 12:36:00;;;;;;;1.08;0.68;;;18.00;99.90;;;;;;5063901;28;20134;-49
2023/07/30 12:38:26;;;;;;;4.38;0.90;;;18.10;99.90;;;;;;5068056;28;20036;-50
2023/07/30 12:40:51;;;;;;;2.10;1.02;;;18.30;99.90;;;;;;5074263;28;20028;-48
2023/07/30 12:43:19;;;;;;;5.38;1.30;;;18.40;99.90;;;;;;5073632;28;20517;-58